Time;durP1;ratioP1;P1;durP2;ratioP2;P2;SDS_P1;SDS_P2;PMS_P1;PMS_P2;Temp;Humidity;BMP_temperature;BMP_pressure;BME280_temperature;BME280_humidity;BME280_pressure;Samples;Min_cycle;Max_cycle;Signal;HPM_P1;HPM_P2
2022/05/01 00:01:49;;;;;;;12.45;9.88;;;9.20;99.90;;;;;;5007955;28;20133;-33
2022/05/01 00:04:16;;;;;;;15.95;9.27;;;9.20;99.90;;;;;;5011608;28;20414;-33
2022/05/01 00:06:43;;;;;;;12.48;9.82;;;9.20;99.90;;;;;;5012584;28;20048;-33
2022/05/01 00:09:11;;;;;;;13.70;9.98;;;9.20;99.90;;;;;;5009196;28;20093;-34
2022/05/01 00:11:38;;;;;;;13.63;8.90;;;9.20;99.90;;;;;;5011921;28;20046;-33
2022/05/01 00:14:04;;;;;;;12.90;9.57;;;9.10;99.90;;;;;;5008101;28;20490;-33
2022/05/01 00:16:31;;;;;;;10.45;8.43;;;9.10;99.90;;;;;;5009937;28;20401;-33
2022/05/01 00:18:58;;;;;;;13.68;9.60;;;9.00;99.90;;;;;;5011638;28;20046;-33
2022/05/01 00:21:24;;;;;;;15.77;10.07;;;9.00;99.90;;;;;;5012162;28;20056;-32
2022/05/01 00:23:51;;;;;;;17.33;11.05;;;9.00;99.90;;;;;;5011781;28;20057;-33
2022/05/01 00:26:19;;;;;;;14.50;8.38;;;9.00;99.90;;;;;;5012091;28;20056;-34
2022/05/01 00:28:46;;;;;;;18.60;10.57;;;9.00;99.90;;;;;;5012366;28;20054;-33
2022/05/01 00:31:16;;;;;;;14.15;9.43;;;9.10;99.90;;;;;;5008984;28;20064;-34
2022/05/01 00:36:26;;;;;;;13.70;9.68;;;9.00;99.90;;;;;;5012024;28;20058;-33
2022/05/01 00:38:53;;;;;;;12.43;10.55;;;9.00;99.90;;;;;;5006307;28;20085;-33
2022/05/01 00:41:23;;;;;;;14.95;9.85;;;9.00;99.90;;;;;;4997134;28;20058;-33
2022/05/01 00:44:00;;;;;;;13.93;9.57;;;9.00;99.90;;;;;;5011606;28;20454;-33
2022/05/01 00:46:27;;;;;;;11.82;9.23;;;9.00;99.90;;;;;;5011164;28;20046;-33
2022/05/01 00:48:54;;;;;;;14.55;10.13;;;9.00;99.90;;;;;;5009625;28;20457;-33
2022/05/01 00:51:21;;;;;;;18.20;10.23;;;8.90;99.90;;;;;;5011767;28;20102;-33
2022/05/01 00:53:48;;;;;;;14.88;10.35;;;8.90;99.90;;;;;;5001935;28;20050;-32
2022/05/01 00:56:15;;;;;;;17.17;10.90;;;8.90;99.90;;;;;;5012376;28;20054;-33
2022/05/01 00:58:43;;;;;;;15.43;10.07;;;8.90;99.90;;;;;;5007655;28;20467;-32
2022/05/01 01:01:09;;;;;;;15.55;12.80;;;8.90;99.90;;;;;;5011105;28;20139;-33
2022/05/01 01:03:36;;;;;;;14.38;10.27;;;8.90;99.90;;;;;;5014938;28;20137;-33
2022/05/01 01:06:03;;;;;;;12.35;10.05;;;8.80;99.90;;;;;;5015904;28;20057;-33
2022/05/01 01:08:30;;;;;;;13.00;10.38;;;8.80;99.90;;;;;;5011513;28;20050;-33
2022/05/01 01:10:57;;;;;;;14.13;10.23;;;8.80;99.90;;;;;;5008095;28;20054;-33
2022/05/01 01:13:26;;;;;;;13.05;10.95;;;8.80;99.90;;;;;;5015891;28;20050;-33
2022/05/01 01:15:54;;;;;;;13.48;10.60;;;8.90;99.90;;;;;;5015600;28;20502;-34
2022/05/01 01:18:24;;;;;;;15.73;10.07;;;8.90;99.90;;;;;;5013833;28;20050;-32
2022/05/01 01:20:53;;;;;;;19.73;11.93;;;8.90;99.90;;;;;;5013278;28;20048;-34
2022/05/01 01:23:20;;;;;;;14.00;9.77;;;8.90;99.90;;;;;;5014381;28;20050;-32
2022/05/01 01:25:47;;;;;;;14.05;10.85;;;8.80;99.90;;;;;;5015004;28;20481;-32
2022/05/01 01:28:13;;;;;;;15.68;10.85;;;8.90;99.90;;;;;;5013196;28;20056;-32
2022/05/01 01:33:25;;;;;;;15.68;12.38;;;8.90;99.90;;;;;;5014041;28;20066;-33
2022/05/01 01:35:53;;;;;;;16.60;13.55;;;8.90;99.90;;;;;;5015016;28;20512;-33
2022/05/01 01:38:19;;;;;;;21.45;13.90;;;8.90;99.90;;;;;;5013660;28;20048;-33
2022/05/01 01:40:48;;;;;;;16.05;11.93;;;8.90;99.90;;;;;;5005832;28;20050;-34
2022/05/01 01:43:16;;;;;;;17.67;12.57;;;8.80;99.90;;;;;;5006041;28;20091;-33
2022/05/01 01:45:43;;;;;;;15.30;11.15;;;8.80;99.90;;;;;;5015191;28;20092;-33
2022/05/01 01:48:10;;;;;;;16.65;11.65;;;8.80;99.90;;;;;;5012060;28;20061;-34
2022/05/01 01:50:37;;;;;;;19.27;12.60;;;8.80;99.90;;;;;;5014403;28;20054;-32
2022/05/01 01:53:05;;;;;;;15.82;11.25;;;8.80;99.90;;;;;;5014895;28;20050;-33
2022/05/01 01:55:32;;;;;;;18.27;12.30;;;8.80;99.90;;;;;;5011932;28;20079;-33
2022/05/01 01:57:58;;;;;;;18.40;12.27;;;8.80;99.90;;;;;;5009994;28;20061;-33
2022/05/01 02:00:25;;;;;;;18.48;13.80;;;8.80;99.90;;;;;;5014868;28;20133;-33
2022/05/01 02:02:59;;;;;;;17.33;12.13;;;8.80;99.90;;;;;;5011889;28;20052;-33
2022/05/01 02:05:26;;;;;;;16.13;11.70;;;8.80;99.90;;;;;;5007066;28;20049;-34
2022/05/01 02:07:53;;;;;;;19.95;13.80;;;8.80;99.90;;;;;;5010402;28;20125;-33
2022/05/01 02:10:21;;;;;;;16.70;12.00;;;8.80;99.90;;;;;;5013746;28;20482;-32
2022/05/01 02:12:48;;;;;;;20.02;14.63;;;8.70;99.90;;;;;;5014856;28;20060;-32
2022/05/01 02:15:15;;;;;;;16.95;13.45;;;8.60;99.90;;;;;;5013166;28;20049;-32
2022/05/01 02:17:41;;;;;;;18.52;13.43;;;8.70;99.90;;;;;;5013575;28;20045;-33
2022/05/01 02:20:09;;;;;;;18.33;13.38;;;8.60;99.90;;;;;;5012257;28;20056;-33
2022/05/01 02:22:36;;;;;;;15.43;12.18;;;8.60;99.90;;;;;;5014997;28;20054;-33
2022/05/01 02:25:03;;;;;;;15.70;11.55;;;8.60;99.90;;;;;;5014962;28;20504;-33
2022/05/01 02:27:31;;;;;;;18.13;13.40;;;8.60;99.90;;;;;;5013434;28;20049;-33
2022/05/01 02:29:57;;;;;;;17.80;13.70;;;8.60;99.90;;;;;;5011059;28;20056;-34
2022/05/01 02:32:24;;;;;;;17.83;13.65;;;8.60;99.90;;;;;;4997583;28;20578;-33
2022/05/01 02:34:51;;;;;;;15.18;11.63;;;8.60;99.90;;;;;;5019624;28;20141;-33
2022/05/01 02:37:17;;;;;;;20.75;14.02;;;8.60;99.90;;;;;;5014109;28;20096;-33
2022/05/01 02:39:44;;;;;;;17.88;12.50;;;8.50;99.90;;;;;;5009509;28;20064;-32
2022/05/01 02:42:11;;;;;;;16.23;12.95;;;8.50;99.90;;;;;;5010359;28;20042;-33
2022/05/01 02:44:39;;;;;;;19.23;13.70;;;8.60;99.90;;;;;;5012984;28;20049;-33
2022/05/01 02:47:06;;;;;;;19.05;13.60;;;8.60;99.90;;;;;;5013574;28;20056;-33
2022/05/01 02:49:34;;;;;;;18.65;14.50;;;8.60;99.90;;;;;;5013472;28;20410;-33
2022/05/01 02:52:00;;;;;;;18.73;14.30;;;8.60;99.90;;;;;;5013805;28;20058;-33
2022/05/01 02:54:28;;;;;;;18.67;14.25;;;8.50;99.90;;;;;;5013978;28;20049;-33
2022/05/01 02:56:55;;;;;;;17.08;14.40;;;8.50;99.90;;;;;;5012023;28;20057;-34
2022/05/01 02:59:22;;;;;;;16.75;14.10;;;8.50;99.90;;;;;;5013134;28;20100;-34
2022/05/01 03:01:50;;;;;;;22.17;15.38;;;8.50;99.90;;;;;;4996653;28;20156;-33
2022/05/01 03:04:16;;;;;;;20.13;15.50;;;8.40;99.90;;;;;;5013429;28;20052;-32
2022/05/01 03:06:43;;;;;;;21.60;15.90;;;8.40;99.90;;;;;;5010582;28;20050;-33
2022/05/01 03:09:10;;;;;;;20.42;13.55;;;8.40;99.90;;;;;;5013768;28;20546;-33
2022/05/01 03:11:36;;;;;;;24.73;17.30;;;8.40;99.90;;;;;;4999619;28;20058;-33
2022/05/01 03:14:03;;;;;;;25.45;16.45;;;8.30;99.90;;;;;;5012801;28;20145;-34
2022/05/01 03:16:30;;;;;;;20.92;15.70;;;8.40;99.90;;;;;;5004434;28;20046;-34
2022/05/01 03:24:35;;;;;;;21.23;15.85;;;8.20;99.90;;;;;;5012135;28;20180;-33
2022/05/01 03:27:02;;;;;;;24.55;17.17;;;8.20;99.90;;;;;;5005068;28;20049;-33
2022/05/01 03:29:29;;;;;;;21.60;14.05;;;8.10;99.90;;;;;;5012360;28;20053;-33
2022/05/01 03:31:55;;;;;;;21.35;14.65;;;8.10;99.90;;;;;;5005558;28;20088;-33
2022/05/01 03:34:26;;;;;;;22.65;15.32;;;8.00;99.90;;;;;;5013296;28;20421;-33
2022/05/01 03:36:53;;;;;;;20.83;15.37;;;8.00;99.90;;;;;;5010824;28;20174;-33
2022/05/01 03:39:20;;;;;;;21.13;16.88;;;8.00;99.90;;;;;;5012042;28;20060;-33
2022/05/01 03:41:47;;;;;;;23.83;16.83;;;8.00;99.90;;;;;;5012680;28;20125;-33
2022/05/01 03:44:13;;;;;;;21.55;16.50;;;8.00;99.90;;;;;;5011806;28;20406;-33
2022/05/01 03:46:40;;;;;;;23.30;15.85;;;7.90;99.90;;;;;;5012640;28;20413;-33
2022/05/01 03:49:07;;;;;;;18.42;14.95;;;7.90;99.90;;;;;;5011562;28;20060;-33
2022/05/01 03:51:35;;;;;;;22.15;14.93;;;7.80;99.90;;;;;;5005041;28;20081;-33
2022/05/01 03:54:02;;;;;;;21.67;16.60;;;7.80;99.90;;;;;;5012714;28;20417;-33
2022/05/01 03:56:29;;;;;;;22.73;16.88;;;7.80;99.90;;;;;;5013109;28;20046;-34
2022/05/01 03:58:55;;;;;;;18.98;14.30;;;7.80;99.90;;;;;;5010719;28;20041;-34
2022/05/01 04:01:22;;;;;;;24.08;17.02;;;7.80;99.90;;;;;;5009445;28;20129;-33
2022/05/01 04:03:49;;;;;;;25.15;17.85;;;7.80;99.90;;;;;;5012953;28;20221;-34
2022/05/01 04:06:16;;;;;;;27.65;19.67;;;7.70;99.90;;;;;;5012299;28;20053;-33
2022/05/01 04:08:44;;;;;;;25.13;18.67;;;7.70;99.90;;;;;;5011465;28;20052;-33
2022/05/01 04:11:10;;;;;;;23.42;18.27;;;7.70;99.90;;;;;;5011158;28;20053;-34
2022/05/01 04:13:37;;;;;;;27.65;17.65;;;7.70;99.90;;;;;;5010070;28;20429;-34
2022/05/01 04:16:04;;;;;;;19.63;15.00;;;7.60;99.90;;;;;;5011364;28;20148;-34
2022/05/01 04:18:31;;;;;;;19.67;15.77;;;7.60;99.90;;;;;;5012166;28;20046;-33
2022/05/01 04:20:58;;;;;;;23.48;17.80;;;7.60;99.90;;;;;;5011171;28;20553;-33
2022/05/01 04:23:25;;;;;;;27.80;17.80;;;7.60;99.90;;;;;;5011027;28;20433;-34
2022/05/01 04:25:53;;;;;;;20.73;15.55;;;7.60;99.90;;;;;;5007920;28;20052;-33
2022/05/01 04:28:20;;;;;;;25.38;17.67;;;7.60;99.90;;;;;;5011980;28;20128;-33
2022/05/01 04:30:50;;;;;;;20.58;16.70;;;7.70;99.90;;;;;;5010669;28;20060;-34
2022/05/01 04:33:16;;;;;;;27.95;20.50;;;7.70;99.90;;;;;;5012397;28;20053;-33
2022/05/01 04:35:44;;;;;;;28.23;18.58;;;7.70;99.90;;;;;;5007537;28;20052;-32
2022/05/01 04:38:11;;;;;;;29.52;20.70;;;7.70;99.90;;;;;;5017143;28;20410;-32
2022/05/01 04:40:39;;;;;;;24.63;17.45;;;7.70;99.90;;;;;;5009593;28;20046;-33
2022/05/01 04:43:08;;;;;;;30.25;20.40;;;7.70;99.90;;;;;;5016553;28;20050;-32
2022/05/01 04:45:35;;;;;;;26.25;19.15;;;7.70;99.90;;;;;;5010568;28;20401;-33
2022/05/01 04:48:02;;;;;;;22.90;18.02;;;7.70;99.90;;;;;;5016527;28;20142;-33
2022/05/01 04:50:29;;;;;;;23.55;17.27;;;7.80;99.90;;;;;;5016304;28;20053;-33
2022/05/01 04:52:57;;;;;;;23.92;18.15;;;7.80;99.90;;;;;;5016325;28;20045;-33
2022/05/01 04:55:23;;;;;;;26.77;18.08;;;7.80;99.90;;;;;;5009099;28;20417;-33
2022/05/01 04:57:50;;;;;;;24.23;16.33;;;7.80;99.90;;;;;;5015814;28;20050;-32
2022/05/01 05:00:19;;;;;;;22.13;16.77;;;7.80;99.90;;;;;;5013854;28;20497;-32
2022/05/01 05:02:47;;;;;;;25.55;18.55;;;7.80;99.90;;;;;;5014590;28;20049;-32
2022/05/01 05:05:14;;;;;;;27.08;18.52;;;7.80;99.90;;;;;;5013805;28;20054;-33
2022/05/01 05:07:41;;;;;;;22.95;16.25;;;7.90;99.90;;;;;;5015211;28;20075;-32
2022/05/01 05:10:08;;;;;;;22.50;17.27;;;7.80;99.90;;;;;;5015805;28;20294;-34
2022/05/01 05:12:35;;;;;;;21.52;15.35;;;7.90;99.90;;;;;;5003982;28;20050;-33
2022/05/01 05:15:02;;;;;;;24.35;16.13;;;7.90;99.90;;;;;;5013654;28;20065;-34
2022/05/01 05:17:31;;;;;;;23.25;16.30;;;7.90;99.90;;;;;;5013577;28;20060;-34
2022/05/01 05:19:58;;;;;;;24.65;16.15;;;7.90;99.90;;;;;;5008119;28;20045;-34
2022/05/01 05:22:25;;;;;;;26.15;18.08;;;7.90;99.90;;;;;;5014211;28;20068;-33
2022/05/01 05:24:52;;;;;;;23.98;17.38;;;7.90;99.90;;;;;;5014758;28;20454;-33
2022/05/01 05:27:21;;;;;;;23.73;17.25;;;7.80;99.90;;;;;;5015914;28;20112;-33
2022/05/01 05:29:48;;;;;;;20.45;15.68;;;7.80;99.90;;;;;;5014549;28;20549;-33
2022/05/01 05:32:14;;;;;;;21.27;17.15;;;7.80;99.90;;;;;;5012676;28;20042;-34
2022/05/01 05:34:42;;;;;;;22.50;15.95;;;7.80;99.90;;;;;;5014442;28;20479;-32
2022/05/01 05:37:09;;;;;;;24.92;17.45;;;7.80;99.90;;;;;;5014327;28;20049;-33
2022/05/01 05:39:36;;;;;;;22.30;16.08;;;7.80;99.90;;;;;;5017125;28;20062;-33
2022/05/01 05:42:03;;;;;;;24.15;16.70;;;7.80;99.90;;;;;;5012044;28;20475;-33
2022/05/01 05:44:29;;;;;;;22.45;17.30;;;7.80;99.90;;;;;;5014041;28;20058;-33
2022/05/01 05:46:56;;;;;;;26.80;18.88;;;7.80;99.90;;;;;;5014495;28;20128;-33
2022/05/01 05:49:23;;;;;;;23.15;17.10;;;7.80;99.90;;;;;;5012796;28;20460;-33
2022/05/01 05:51:51;;;;;;;23.70;19.13;;;7.80;99.90;;;;;;5013629;28;20048;-33
2022/05/01 05:54:17;;;;;;;28.92;20.38;;;7.90;99.90;;;;;;5014103;28;20056;-33
2022/05/01 05:56:44;;;;;;;25.92;19.63;;;7.90;99.90;;;;;;5015337;28;20052;-32
2022/05/01 05:59:11;;;;;;;35.80;20.35;;;8.00;99.90;;;;;;5010721;28;20516;-32
2022/05/01 06:01:38;;;;;;;23.02;18.02;;;8.00;99.90;;;;;;5013088;28;20045;-33
2022/05/01 06:04:05;;;;;;;27.52;19.95;;;8.00;99.90;;;;;;5013938;28;20076;-33
2022/05/01 06:06:31;;;;;;;30.77;19.70;;;8.00;99.90;;;;;;5012845;28;20050;-32
2022/05/01 06:08:59;;;;;;;27.85;17.98;;;8.10;99.90;;;;;;5012456;28;20498;-33
2022/05/01 06:11:27;;;;;;;27.85;19.20;;;8.10;99.90;;;;;;5013681;28;20129;-33
2022/05/01 06:13:53;;;;;;;22.33;17.23;;;8.20;99.90;;;;;;5014730;28;20125;-33
2022/05/01 06:16:20;;;;;;;22.83;16.85;;;8.30;99.90;;;;;;5012174;28;20409;-34
2022/05/01 06:18:47;;;;;;;20.92;15.85;;;8.40;99.90;;;;;;5008047;28;20042;-34
2022/05/01 06:21:14;;;;;;;25.83;17.40;;;8.50;99.90;;;;;;5007048;28;20046;-33
2022/05/01 06:23:40;;;;;;;23.55;16.88;;;8.60;99.90;;;;;;5012763;28;20053;-33
2022/05/01 06:26:08;;;;;;;19.92;14.95;;;8.70;99.90;;;;;;5013264;28;20501;-34
2022/05/01 06:28:35;;;;;;;15.57;12.35;;;8.90;99.90;;;;;;5014444;28;20049;-34
2022/05/01 06:31:02;;;;;;;20.33;13.65;;;9.00;99.90;;;;;;5014796;28;20054;-34
2022/05/01 06:33:29;;;;;;;19.38;14.02;;;9.20;99.90;;;;;;5012883;28;20482;-33
2022/05/01 06:35:56;;;;;;;18.17;12.75;;;9.30;99.90;;;;;;5010896;28;20045;-34
2022/05/01 06:38:22;;;;;;;16.73;12.18;;;9.40;99.90;;;;;;5000732;28;20065;-33
2022/05/01 06:40:49;;;;;;;16.38;12.13;;;9.50;99.90;;;;;;5015045;28;20049;-34
2022/05/01 06:43:18;;;;;;;16.63;12.02;;;9.70;99.90;;;;;;5011566;28;20053;-34
2022/05/01 06:45:45;;;;;;;13.77;11.20;;;9.80;99.90;;;;;;5012412;28;20060;-34
2022/05/01 06:48:11;;;;;;;17.67;11.30;;;9.90;99.90;;;;;;5013277;28;20053;-33
2022/05/01 06:50:38;;;;;;;18.08;13.52;;;10.00;99.90;;;;;;5013319;28;20403;-34
2022/05/01 06:53:05;;;;;;;16.95;11.38;;;10.10;99.90;;;;;;5013341;28;20050;-33
2022/05/01 06:55:32;;;;;;;17.95;12.23;;;10.20;99.90;;;;;;5013901;28;20045;-32
2022/05/01 06:57:58;;;;;;;16.25;11.57;;;10.30;99.90;;;;;;5011880;28;20163;-33
2022/05/01 07:00:26;;;;;;;15.80;11.80;;;10.40;99.90;;;;;;5002477;28;20562;-32
2022/05/01 07:02:54;;;;;;;21.88;10.27;;;10.50;99.90;;;;;;5012606;28;20129;-33
2022/05/01 07:05:21;;;;;;;14.02;10.75;;;10.60;99.90;;;;;;5010352;28;20414;-33
2022/05/01 07:07:49;;;;;;;19.40;10.45;;;10.70;99.90;;;;;;5010703;28;20060;-33
2022/05/01 07:10:16;;;;;;;15.77;10.30;;;10.80;99.90;;;;;;5013051;28;20050;-33
2022/05/01 07:12:43;;;;;;;14.15;9.35;;;11.00;99.90;;;;;;5013289;28;20038;-33
2022/05/01 07:15:10;;;;;;;11.93;9.27;;;10.90;99.90;;;;;;5013408;28;20046;-33
2022/05/01 07:17:38;;;;;;;17.23;9.07;;;11.10;99.90;;;;;;5011399;28;20045;-33
2022/05/01 07:20:07;;;;;;;12.30;8.63;;;11.10;99.90;;;;;;5019041;28;20056;-34
2022/05/01 07:22:33;;;;;;;10.65;8.23;;;11.20;99.90;;;;;;5006306;28;20042;-34
2022/05/01 07:25:00;;;;;;;14.40;9.88;;;11.30;99.80;;;;;;5012443;28;20064;-34
2022/05/01 07:27:27;;;;;;;12.65;9.55;;;11.50;99.50;;;;;;5011677;28;20136;-33
2022/05/01 07:29:53;;;;;;;13.82;9.00;;;11.60;99.30;;;;;;5009794;28;20054;-33
2022/05/01 07:32:20;;;;;;;11.85;9.35;;;11.70;99.20;;;;;;5010102;28;20046;-33
2022/05/01 07:34:48;;;;;;;13.80;9.02;;;11.80;98.70;;;;;;5006105;28;20073;-34
2022/05/01 07:37:16;;;;;;;11.10;8.23;;;11.80;98.20;;;;;;5008643;28;20064;-34
2022/05/01 07:39:43;;;;;;;12.70;8.80;;;11.90;97.80;;;;;;5012470;28;20417;-34
2022/05/01 07:42:11;;;;;;;12.68;7.85;;;12.00;97.30;;;;;;5014591;28;20128;-33
2022/05/01 07:44:37;;;;;;;14.57;8.32;;;12.10;97.30;;;;;;5010018;28;20556;-34
2022/05/01 07:47:04;;;;;;;13.35;8.13;;;12.10;96.60;;;;;;5011033;28;20058;-33
2022/05/01 07:49:31;;;;;;;11.82;7.97;;;12.20;96.70;;;;;;5011227;28;20112;-33
2022/05/01 07:51:59;;;;;;;12.98;8.07;;;12.30;96.80;;;;;;5012666;28;20046;-34
2022/05/01 07:54:26;;;;;;;13.23;6.70;;;12.40;96.50;;;;;;5012932;28;20076;-34
2022/05/01 07:56:52;;;;;;;11.52;6.35;;;12.60;96.30;;;;;;5005085;28;20050;-34
2022/05/01 07:59:19;;;;;;;15.32;7.63;;;12.60;95.80;;;;;;5011574;28;20068;-33
2022/05/01 08:01:46;;;;;;;11.00;6.95;;;12.80;95.50;;;;;;5012226;28;20068;-34
2022/05/01 08:04:31;;;;;;;11.95;6.38;;;12.80;95.20;;;;;;5012472;28;20133;-34
2022/05/01 08:07:00;;;;;;;10.73;6.70;;;12.80;95.30;;;;;;5012570;28;20137;-33
2022/05/01 08:09:27;;;;;;;8.77;6.07;;;12.80;94.40;;;;;;5006916;28;20646;-34
2022/05/01 08:11:53;;;;;;;9.93;6.10;;;12.70;94.20;;;;;;5011595;28;20041;-33
2022/05/01 08:14:21;;;;;;;7.22;6.25;;;12.70;94.30;;;;;;5012141;28;20494;-34
2022/05/01 08:16:48;;;;;;;10.48;5.70;;;12.70;94.30;;;;;;5009284;28;20058;-34
2022/05/01 08:22:00;;;;;;;11.07;6.45;;;13.00;93.70;;;;;;5012420;28;20042;-33
2022/05/01 08:24:27;;;;;;;10.35;6.03;;;13.10;93.00;;;;;;5012217;28;20429;-33
2022/05/01 08:26:53;;;;;;;6.72;5.35;;;13.00;92.40;;;;;;5012343;28;20060;-33
2022/05/01 08:29:20;;;;;;;6.63;5.57;;;13.10;92.70;;;;;;5006436;28;20057;-33
2022/05/01 08:31:47;;;;;;;8.18;4.80;;;13.20;91.90;;;;;;5007377;28;20068;-33
2022/05/01 08:34:14;;;;;;;8.10;5.78;;;13.30;91.60;;;;;;5009903;28;21224;-33
2022/05/01 08:36:41;;;;;;;10.43;5.97;;;13.40;91.30;;;;;;4997972;28;20064;-33
2022/05/01 08:39:10;;;;;;;5.70;4.88;;;13.40;91.40;;;;;;5008228;28;20453;-33
2022/05/01 08:41:37;;;;;;;8.75;6.15;;;13.60;91.60;;;;;;5011720;28;20133;-32
2022/05/01 08:44:05;;;;;;;9.63;5.95;;;13.80;91.40;;;;;;5014871;28;20394;-33
2022/05/01 08:47:09;;;;;;;10.50;6.35;;;13.90;91.00;;;;;;5010961;28;20125;-33
2022/05/01 08:49:36;;;;;;;8.95;5.95;;;13.90;90.00;;;;;;5007805;28;20509;-33
2022/05/01 08:52:03;;;;;;;9.20;5.35;;;13.80;90.60;;;;;;5003394;28;20071;-33
2022/05/01 08:54:32;;;;;;;9.35;6.70;;;14.00;90.60;;;;;;5011786;28;20050;-33
2022/05/01 08:56:59;;;;;;;11.35;6.03;;;14.10;90.20;;;;;;5010395;28;20057;-34
2022/05/01 08:59:25;;;;;;;9.48;5.93;;;14.20;89.70;;;;;;5006372;28;20042;-33
2022/05/01 09:01:53;;;;;;;8.30;5.63;;;14.20;88.80;;;;;;5003893;28;20042;-33
2022/05/01 09:04:20;;;;;;;8.88;5.82;;;14.30;89.00;;;;;;5003103;28;20457;-34
2022/05/01 09:06:47;;;;;;;8.43;5.68;;;14.40;87.90;;;;;;5002261;28;20061;-33
2022/05/01 09:09:17;;;;;;;9.35;6.28;;;14.50;87.10;;;;;;5011212;28;20046;-33
2022/05/01 09:14:29;;;;;;;8.63;5.97;;;14.70;87.80;;;;;;5008401;28;20050;-33
2022/05/01 09:17:16;;;;;;;10.30;6.47;;;14.80;86.30;;;;;;5007620;28;20163;-34
2022/05/01 09:19:43;;;;;;;9.23;5.75;;;14.90;87.00;;;;;;5004503;28;20480;-33
2022/05/01 09:22:11;;;;;;;9.07;6.25;;;15.00;87.30;;;;;;5009989;28;20049;-34
2022/05/01 09:24:37;;;;;;;7.75;6.18;;;15.20;87.10;;;;;;5004636;28;20176;-33
2022/05/01 09:27:06;;;;;;;9.00;5.53;;;15.40;86.70;;;;;;5002959;28;20482;-34
2022/05/01 09:29:34;;;;;;;8.88;5.85;;;15.60;85.00;;;;;;5014355;28;20073;-34
2022/05/01 09:32:03;;;;;;;8.80;5.68;;;15.80;85.10;;;;;;5012522;28;20433;-35
2022/05/01 09:34:31;;;;;;;8.50;5.75;;;15.90;83.40;;;;;;5014307;28;20489;-34
2022/05/01 09:36:59;;;;;;;10.63;5.90;;;15.80;81.40;;;;;;5010355;28;20056;-34
2022/05/01 09:39:27;;;;;;;8.23;5.88;;;15.90;82.30;;;;;;5008628;28;20054;-34
2022/05/01 09:41:54;;;;;;;10.30;5.80;;;16.10;82.70;;;;;;5016849;28;20081;-34
2022/05/01 09:44:23;;;;;;;7.97;5.95;;;16.40;82.70;;;;;;5004908;28;20092;-34
2022/05/01 09:46:50;;;;;;;6.78;5.65;;;16.70;80.50;;;;;;5013114;28;20046;-34
2022/05/01 09:49:17;;;;;;;8.15;5.50;;;16.60;79.80;;;;;;5015063;28;20054;-34
2022/05/01 09:51:46;;;;;;;6.18;4.72;;;16.80;80.10;;;;;;5012778;28;20451;-34
2022/05/01 09:54:18;;;;;;;10.52;5.82;;;17.00;80.70;;;;;;5012829;28;20504;-34
2022/05/01 09:56:45;;;;;;;9.70;5.70;;;17.20;79.20;;;;;;5012536;28;20056;-34
2022/05/01 09:59:13;;;;;;;10.05;5.95;;;17.30;78.20;;;;;;5014995;28;20064;-34
2022/05/01 10:01:42;;;;;;;8.65;5.72;;;17.40;78.10;;;;;;5006167;28;20053;-34
2022/05/01 10:04:08;;;;;;;7.43;5.32;;;17.50;77.30;;;;;;5010645;28;20049;-34
2022/05/01 10:06:35;;;;;;;6.55;4.97;;;17.60;76.10;;;;;;5003611;28;20493;-34
2022/05/01 10:09:02;;;;;;;7.55;4.95;;;17.60;76.20;;;;;;5010741;28;20411;-34
2022/05/01 10:11:29;;;;;;;6.43;5.15;;;17.60;75.90;;;;;;5013592;28;20478;-34
2022/05/01 10:13:56;;;;;;;6.28;5.20;;;17.60;75.10;;;;;;5014335;28;20056;-34
2022/05/01 10:16:24;;;;;;;9.75;5.40;;;17.60;74.90;;;;;;5012913;28;20093;-34
2022/05/01 10:18:52;;;;;;;13.00;5.40;;;17.50;75.00;;;;;;5010050;28;20054;-34
2022/05/01 10:21:18;;;;;;;11.48;4.85;;;17.60;73.50;;;;;;5004842;28;20406;-32
2022/05/01 10:23:45;;;;;;;7.53;5.18;;;17.70;72.70;;;;;;5005866;28;20377;-33
2022/05/01 10:26:15;;;;;;;5.93;4.88;;;17.80;71.90;;;;;;5007005;28;20090;-33
2022/05/01 10:29:16;;;;;;;6.38;5.10;;;17.80;72.40;;;;;;5012130;28;20050;-34
2022/05/01 10:34:57;;;;;;;6.13;4.47;;;17.70;73.20;;;;;;5007368;28;19922;-34
2022/05/01 10:37:43;;;;;;;7.30;4.77;;;17.60;73.40;;;;;;5011377;28;20054;-33
2022/05/01 10:40:10;;;;;;;7.97;5.43;;;17.50;72.00;;;;;;5010852;28;20062;-33
2022/05/01 10:42:38;;;;;;;7.28;4.72;;;17.30;72.90;;;;;;5008769;28;20550;-34
2022/05/01 10:45:24;;;;;;;6.30;4.55;;;17.30;72.80;;;;;;5012750;28;20136;-34
2022/05/01 10:47:51;;;;;;;7.32;4.53;;;17.30;71.50;;;;;;5012808;28;20054;-34
2022/05/01 10:50:22;;;;;;;6.50;4.20;;;17.30;71.90;;;;;;5011704;28;20512;-34
2022/05/01 10:53:04;;;;;;;5.30;3.92;;;17.30;72.00;;;;;;5011918;28;20046;-33
2022/05/01 10:55:42;;;;;;;5.50;4.57;;;17.30;71.40;;;;;;5011396;28;20049;-34
2022/05/01 10:58:19;;;;;;;8.50;5.07;;;17.30;70.60;;;;;;5008695;28;20054;-34
2022/05/01 11:00:46;;;;;;;6.05;4.53;;;17.10;71.70;;;;;;5006411;28;20045;-34
2022/05/01 11:03:22;;;;;;;6.90;5.18;;;17.00;71.10;;;;;;5011289;28;20061;-33
2022/05/01 11:05:54;;;;;;;5.95;4.50;;;16.90;68.30;;;;;;5014979;28;20046;-33
2022/05/01 11:08:23;;;;;;;7.88;4.65;;;16.70;69.60;;;;;;5013818;28;20094;-33
2022/05/01 11:10:51;;;;;;;5.47;4.35;;;16.60;71.00;;;;;;5013990;28;20050;-33
2022/05/01 11:13:18;;;;;;;6.55;4.22;;;16.50;69.90;;;;;;5013924;28;20479;-34
2022/05/01 11:15:49;;;;;;;4.63;3.00;;;16.50;70.90;;;;;;5013705;28;20050;-34
2022/05/01 11:18:16;;;;;;;5.00;2.80;;;16.50;71.10;;;;;;5014017;28;20056;-33
2022/05/01 11:20:43;;;;;;;8.57;4.40;;;16.60;70.90;;;;;;5013627;28;20062;-33
2022/05/01 11:23:31;;;;;;;7.50;4.20;;;16.80;69.10;;;;;;5013703;28;20112;-33
2022/05/01 11:26:25;;;;;;;7.30;3.95;;;16.80;68.60;;;;;;5013237;28;20494;-34
2022/05/01 11:28:53;;;;;;;6.75;4.57;;;17.00;69.40;;;;;;5000987;28;20048;-32
2022/05/01 11:31:48;;;;;;;6.03;4.22;;;17.10;67.80;;;;;;5013763;28;20060;-33
2022/05/01 11:34:49;;;;;;;5.28;3.72;;;17.20;67.40;;;;;;5003837;28;20049;-33
2022/05/01 11:37:15;;;;;;;6.30;3.78;;;17.40;67.70;;;;;;5007627;28;20065;-33
2022/05/01 11:40:17;;;;;;;3.47;3.13;;;17.40;65.90;;;;;;5020547;28;20060;-34
2022/05/01 11:42:44;;;;;;;5.63;3.75;;;17.60;66.30;;;;;;5013029;28;20065;-33
2022/05/01 11:45:11;;;;;;;3.88;3.47;;;17.80;65.30;;;;;;5008431;28;20466;-34
2022/05/01 11:47:38;;;;;;;4.97;3.50;;;18.00;65.10;;;;;;5013289;28;20054;-33
2022/05/01 11:50:06;;;;;;;5.45;3.60;;;18.20;63.30;;;;;;5013243;28;20144;-34
2022/05/01 11:52:36;;;;;;;5.10;3.50;;;18.20;63.60;;;;;;5013201;28;20053;-34
2022/05/01 11:55:07;;;;;;;8.35;3.90;;;18.30;62.60;;;;;;5003716;28;20053;-34
2022/05/01 12:03:04;;;;;;;5.03;3.45;;;18.70;63.20;;;;;;5012724;28;20484;-34
2022/05/01 12:05:31;;;;;;;8.05;3.45;;;18.90;63.70;;;;;;5012943;28;20050;-34
2022/05/01 12:07:59;;;;;;;7.75;4.45;;;18.90;62.60;;;;;;5012895;28;20050;-34
2022/05/01 12:10:26;;;;;;;6.40;4.00;;;18.90;62.80;;;;;;5011457;28;20054;-34
2022/05/01 12:12:54;;;;;;;6.88;3.97;;;18.90;62.60;;;;;;5012964;28;20057;-34
2022/05/01 12:15:21;;;;;;;6.63;4.03;;;18.90;62.20;;;;;;5013090;28;20046;-34
2022/05/01 12:17:47;;;;;;;5.45;3.78;;;18.80;60.90;;;;;;5011492;28;20134;-34
2022/05/01 12:20:14;;;;;;;6.75;3.97;;;18.80;60.80;;;;;;5011891;28;20054;-35
2022/05/01 12:22:41;;;;;;;5.90;4.00;;;18.70;59.70;;;;;;5012526;28;20050;-34
2022/05/01 12:25:10;;;;;;;4.97;3.85;;;18.60;61.50;;;;;;5008462;28;20505;-34
2022/05/01 12:27:40;;;;;;;4.72;3.63;;;18.80;60.90;;;;;;5009326;28;20410;-34
2022/05/01 12:30:09;;;;;;;8.38;4.18;;;18.70;61.00;;;;;;5012190;28;20057;-34
2022/05/01 12:32:37;;;;;;;7.50;3.85;;;18.60;60.00;;;;;;5012410;28;20049;-33
2022/05/01 12:35:04;;;;;;;5.20;3.50;;;18.50;60.30;;;;;;5012536;28;20053;-33
2022/05/01 12:37:34;;;;;;;4.93;3.30;;;18.40;60.10;;;;;;5012499;28;20042;-33
2022/05/01 12:40:03;;;;;;;4.28;3.40;;;18.50;61.00;;;;;;5011111;28;20133;-33
2022/05/01 12:45:17;;;;;;;5.70;3.85;;;18.40;60.40;;;;;;5012450;28;20053;-33
2022/05/01 12:47:45;;;;;;;5.43;3.30;;;18.40;59.60;;;;;;5012733;28;20052;-34
2022/05/01 12:50:40;;;;;;;5.28;3.55;;;18.40;60.60;;;;;;5003970;28;20049;-34
2022/05/01 12:53:21;;;;;;;4.60;3.10;;;18.50;58.70;;;;;;5012831;28;20050;-34
2022/05/01 12:55:48;;;;;;;5.43;3.17;;;18.30;59.30;;;;;;5012421;28;20049;-34
2022/05/01 12:58:15;;;;;;;5.75;3.20;;;18.20;58.90;;;;;;5013399;28;20425;-34
2022/05/01 13:00:45;;;;;;;3.70;3.10;;;18.10;58.40;;;;;;5015566;28;20077;-34
2022/05/01 13:03:16;;;;;;;5.55;3.20;;;18.00;58.80;;;;;;5016296;28;20053;-34
2022/05/01 13:05:43;;;;;;;5.10;2.92;;;18.00;59.60;;;;;;5014340;28;20053;-34
2022/05/01 13:08:17;;;;;;;5.40;3.28;;;17.90;59.70;;;;;;5007997;28;20058;-34
2022/05/01 13:10:43;;;;;;;4.28;3.03;;;17.90;58.10;;;;;;5006400;28;20128;-34
2022/05/01 13:13:10;;;;;;;3.72;2.47;;;17.90;58.50;;;;;;5005847;28;20124;-34
2022/05/01 13:15:37;;;;;;;4.20;2.92;;;17.90;58.80;;;;;;5009706;28;20049;-34